Brandon, South Dakota
Current Conditions -  °F | °C
As of 5:56 AM on Sunday 23 Nov 2014 (Local Time) from KFSD Reporting Station
Overcast Overcast  
Wind Chill: 36°   Ceiling: 6500
Heat Index: 41°   Visibility: 7mi
Dew Point: 40°   Wind: 8mph
Humidity: 96%   Direction: 290°WNW
Pressure: 29.46"   Gusts: NA
Location:  43.59°N, 96.57°W
Report Text: KFSD 231156Z 29007KT 7SM BKN065 OVC085 05/04 A2946 RMK AO2 PRESRR SLP984 T00500044 10061 20033 53019
Loading
Personal Weather Stations






























Interactive Weather Map New forecast layout! Learn more

10-Day Weather Forecast

Advertisements
Track Severe Weather on mobile